Time;durP1;ratioP1;P1;durP2;ratioP2;P2;SDS_P1;SDS_P2;PMS_P1;PMS_P2;Temp;Humidity;BMP_temperature;BMP_pressure;BME280_temperature;BME280_humidity;BME280_pressure;Samples;Min_cycle;Max_cycle;Signal;HPM_P1;HPM_P2
2022/01/17 00:00:31;;;;;;;470.60;270.43;;;;;;;-1.41;78.82;95361.91;5074807;28;20648;-80
2022/01/17 00:02:59;;;;;;;354.33;226.07;;;;;;;-1.03;78.16;95414.75;5075003;28;20562;-80
2022/01/17 00:05:25;;;;;;;365.93;194.80;;;;;;;-0.96;77.99;95418.47;5074842;28;20159;-80
2022/01/17 00:07:50;;;;;;;370.80;316.97;;;;;;;-1.32;78.24;95363.75;5074596;28;20603;-80
2022/01/17 00:10:16;;;;;;;438.47;392.30;;;;;;;-1.19;77.70;95379.84;5075118;28;20198;-81
2022/01/17 00:12:45;;;;;;;374.33;186.57;;;;;;;-1.26;78.00;95383.88;5074876;28;20245;-80
2022/01/17 00:15:20;;;;;;;335.43;183.43;;;;;;;-1.11;77.54;95417.13;5073204;28;20565;-80
2022/01/17 00:17:50;;;;;;;394.87;242.47;;;;;;;-1.24;77.76;95404.41;5074692;28;20159;-80
2022/01/17 00:20:24;;;;;;;370.60;270.57;;;;;;;-1.45;78.03;95365.69;5074411;28;20158;-82
2022/01/17 00:22:50;;;;;;;320.13;160.00;;;;;;;-1.69;78.28;95340.09;5069219;28;20257;-80
2022/01/17 00:25:16;;;;;;;351.27;170.93;;;;;;;-1.45;78.15;95381.16;5063899;28;20167;-80
2022/01/17 00:27:41;;;;;;;318.90;161.07;;;;;;;-1.48;78.23;95391.75;5060601;28;20545;-80
2022/01/17 00:30:09;;;;;;;218.17;122.70;;;;;;;-1.59;79.36;95396.97;5066737;28;20673;-80
2022/01/17 00:32:35;;;;;;;340.37;307.33;;;;;;;-1.38;80.24;95415.84;5058420;28;20167;-80
2022/01/17 00:35:01;;;;;;;417.27;353.43;;;;;;;-1.47;79.61;95390.78;5061642;28;20191;-80
2022/01/17 00:37:26;;;;;;;280.03;128.33;;;;;;;-1.25;79.21;95426.84;5060828;28;20665;-80
2022/01/17 00:39:52;;;;;;;238.87;102.30;;;;;;;-1.21;78.34;95435.16;5061478;28;20174;-80
2022/01/17 00:42:18;;;;;;;278.90;132.47;;;;;;;-1.24;78.69;95428.47;5073992;28;20216;-80
2022/01/17 00:44:43;;;;;;;263.77;108.07;;;;;;;-1.24;78.76;95422.50;5073885;28;20170;-80
2022/01/17 00:47:08;;;;;;;236.33;105.83;;;;;;;-1.27;79.09;95417.56;5072634;28;20174;-80
2022/01/17 00:49:34;;;;;;;269.17;118.27;;;;;;;-1.27;79.69;95412.41;5074134;28;20196;-80
2022/01/17 00:51:59;;;;;;;304.37;136.27;;;;;;;-1.20;79.03;95419.53;5073828;28;20174;-80
2022/01/17 00:54:25;;;;;;;340.63;149.70;;;;;;;-1.42;78.79;95382.69;5072488;28;20179;-81
2022/01/17 00:56:50;;;;;;;531.57;478.70;;;;;;;-1.23;78.64;95419.78;5073673;28;20181;-80
2022/01/17 00:59:16;;;;;;;470.03;419.13;;;;;;;-1.35;78.66;95397.53;5067204;28;20563;-80
2022/01/17 01:01:41;;;;;;;500.90;455.23;;;;;;;-1.49;77.87;95372.03;5063103;28;20564;-80
2022/01/17 01:04:07;;;;;;;245.27;197.23;;;;;;;-1.40;78.77;95401.47;5057334;28;20650;-80
2022/01/17 01:06:32;;;;;;;377.50;336.23;;;;;;;-1.50;78.91;95385.06;5063201;28;20198;-80
2022/01/17 01:08:58;;;;;;;371.77;328.93;;;;;;;-1.76;78.88;95349.28;5074039;28;20244;-80
2022/01/17 01:11:23;;;;;;;356.47;318.67;;;;;;;-1.40;78.93;95407.44;5073333;28;20198;-80
2022/01/17 01:13:49;;;;;;;198.80;97.33;;;;;;;-1.41;79.14;95395.47;5073851;28;20162;-80
2022/01/17 01:19:08;;;;;;;183.27;86.37;;;;;;;-1.41;79.21;95397.22;5063266;28;20187;-80
2022/01/17 01:21:47;;;;;;;184.40;75.93;;;;;;;-1.61;78.95;95371.25;5058267;28;20170;-80
2022/01/17 01:29:55;;;;;;;214.00;88.70;;;;;;;-1.53;78.47;95380.97;5073630;28;20185;-81
2022/01/17 01:32:24;;;;;;;274.30;106.97;;;;;;;-1.61;78.82;95378.19;5073015;28;20181;-81
2022/01/17 01:34:52;;;;;;;229.43;95.80;;;;;;;-1.80;79.75;95365.13;5070185;28;20177;-81
2022/01/17 01:37:18;;;;;;;311.17;120.07;;;;;;;-1.85;79.80;95359.53;5061072;28;20207;-81
2022/01/17 01:39:45;;;;;;;276.93;110.47;;;;;;;-1.86;79.75;95369.03;5055175;28;20205;-81
2022/01/17 01:42:15;;;;;;;280.43;115.47;;;;;;;-1.88;80.20;95362.34;5052296;28;20185;-81
2022/01/17 01:44:41;;;;;;;249.33;100.83;;;;;;;-1.94;80.05;95351.59;5054545;28;20175;-81
2022/01/17 01:47:06;;;;;;;244.53;96.60;;;;;;;-2.03;80.33;95336.03;5051832;28;20680;-81
2022/01/17 01:49:32;;;;;;;207.83;84.67;;;;;;;-1.64;79.98;95389.56;5058605;28;20185;-82
2022/01/17 01:51:57;;;;;;;176.60;70.80;;;;;;;-1.89;79.45;95348.63;5061064;28;20203;-81
2022/01/17 01:54:23;;;;;;;180.57;67.10;;;;;;;-1.74;80.12;95388.69;5060962;28;20190;-82
2022/01/17 01:56:50;;;;;;;194.27;75.63;;;;;;;-1.77;80.03;95378.59;5056217;28;20190;-82
2022/01/17 01:59:20;;;;;;;184.90;71.63;;;;;;;-1.70;79.49;95378.94;5052545;28;20246;-81
2022/01/17 02:01:46;;;;;;;180.80;67.23;;;;;;;-1.65;79.39;95372.47;5052528;28;20151;-82
2022/01/17 02:04:13;;;;;;;165.60;65.23;;;;;;;-1.86;79.42;95338.06;5052410;28;20163;-82
2022/01/17 02:06:39;;;;;;;154.33;62.27;;;;;;;-1.75;79.05;95363.00;5052378;28;20725;-82
2022/01/17 02:09:05;;;;;;;147.60;57.13;;;;;;;-1.64;79.13;95366.34;5051144;28;20179;-82
2022/01/17 02:11:32;;;;;;;154.70;60.77;;;;;;;-1.69;79.14;95365.91;5051056;28;20289;-82
2022/01/17 02:13:58;;;;;;;150.30;59.97;;;;;;;-1.84;79.13;95340.53;5051309;28;20552;-83
2022/01/17 02:16:24;;;;;;;140.87;57.53;;;;;;;-1.80;79.67;95347.88;5052800;28;20167;-82
2022/01/17 02:18:50;;;;;;;149.00;61.03;;;;;;;-1.80;80.56;95360.78;5052225;28;20262;-82
2022/01/17 02:23:59;;;;;;;157.90;60.10;;;;;;;-1.83;79.74;95342.16;5052428;28;20159;-82
2022/01/17 02:26:26;;;;;;;133.23;55.73;;;;;;;-1.70;79.75;95355.72;5052057;28;20164;-82
2022/01/17 02:28:54;;;;;;;144.90;58.73;;;;;;;-1.74;80.50;95362.91;5052441;28;20540;-82
2022/01/17 02:31:22;;;;;;;139.13;58.90;;;;;;;-1.72;80.52;95360.16;5050709;28;20286;-82
2022/01/17 02:33:50;;;;;;;144.97;58.23;;;;;;;-1.71;80.24;95351.47;5051874;28;20236;-83
2022/01/17 02:36:15;;;;;;;153.67;62.10;;;;;;;-1.97;79.64;95307.16;5050787;28;20660;-83
2022/01/17 02:38:41;;;;;;;165.73;65.97;;;;;;;-1.99;80.07;95307.28;5052128;28;20178;-83
2022/01/17 02:41:07;;;;;;;154.43;66.03;;;;;;;-1.72;79.44;95355.81;5050743;28;20170;-83
2022/01/17 02:43:33;;;;;;;185.70;77.87;;;;;;;-1.85;79.96;95329.41;5051954;28;20619;-83
2022/01/17 02:48:30;;;;;;;190.27;75.07;;;;;;;-2.00;80.32;95323.72;5052180;28;20244;-82
2022/01/17 02:50:58;;;;;;;166.23;69.03;;;;;;;-1.80;80.18;95354.81;5055409;28;20194;-83
2022/01/17 02:53:24;;;;;;;191.70;74.43;;;;;;;-1.84;79.73;95343.09;5056383;28;20170;-83
2022/01/17 02:55:59;;;;;;;151.20;65.27;;;;;;;-2.08;79.34;95308.03;5056052;28;20171;-82
2022/01/17 02:58:27;;;;;;;140.03;56.70;;;;;;;-1.73;79.08;95358.56;5056205;28;20253;-82
2022/01/17 03:00:56;;;;;;;139.03;57.93;;;;;;;-1.74;78.44;95356.91;5063054;28;20212;-82
2022/01/17 03:03:27;;;;;;;137.13;57.93;;;;;;;-1.73;78.75;95349.03;5064508;28;20260;-82
2022/01/17 03:05:55;;;;;;;130.37;54.60;;;;;;;-2.10;78.67;95293.63;5062037;28;20171;-82
2022/01/17 03:08:23;;;;;;;136.17;55.87;;;;;;;-1.76;78.97;95344.13;5070644;28;20230;-83
2022/01/17 03:10:50;;;;;;;152.90;60.47;;;;;;;-1.79;79.05;95351.28;5075674;28;20209;-82
2022/01/17 03:13:28;;;;;;;144.50;53.50;;;;;;;-1.98;78.84;95308.09;5075924;28;20162;-81
2022/01/17 03:15:56;;;;;;;143.23;55.23;;;;;;;-1.76;78.93;95338.97;5075599;28;20241;-81
2022/01/17 03:18:24;;;;;;;138.47;59.87;;;;;;;-1.79;78.54;95340.97;5067075;28;20177;-81
2022/01/17 03:20:50;;;;;;;164.30;61.63;;;;;;;-2.14;78.74;95290.47;5063688;28;20176;-83
2022/01/17 03:23:15;;;;;;;160.60;63.77;;;;;;;-1.74;78.20;95336.28;5064435;28;20182;-82
2022/01/17 03:25:41;;;;;;;171.50;65.33;;;;;;;-1.83;78.51;95316.38;5060567;28;20210;-82
2022/01/17 03:28:06;;;;;;;147.73;59.60;;;;;;;-1.70;78.21;95335.88;5076007;28;20159;-82
2022/01/17 03:33:53;;;;;;;139.97;55.83;;;;;;;-1.73;78.61;95328.38;5075348;28;20212;-83
2022/01/17 03:36:20;;;;;;;151.47;60.07;;;;;;;-1.70;78.75;95335.88;5075509;28;20174;-83
2022/01/17 03:38:46;;;;;;;149.77;62.03;;;;;;;-1.65;78.40;95353.59;5075540;28;20169;-83
2022/01/17 03:41:15;;;;;;;184.33;75.87;;;;;;;-1.59;78.33;95360.81;5075182;28;20166;-82
2022/01/17 03:43:40;;;;;;;215.50;92.17;;;;;;;-1.69;78.40;95347.03;5075376;28;20178;-82
2022/01/17 03:46:06;;;;;;;218.97;98.03;;;;;;;-1.82;78.63;95330.91;5074871;28;20645;-82
2022/01/17 03:48:33;;;;;;;229.27;95.23;;;;;;;-1.64;78.08;95362.94;5075542;28;20253;-82
2022/01/17 03:51:00;;;;;;;235.53;92.83;;;;;;;-1.83;77.61;95331.84;5075214;28;20183;-82
2022/01/17 03:53:25;;;;;;;220.33;91.67;;;;;;;-1.65;78.08;95366.50;5074971;28;20159;-82
2022/01/17 03:55:52;;;;;;;213.07;91.87;;;;;;;-1.64;78.39;95363.75;5074812;28;20671;-82
2022/01/17 03:58:18;;;;;;;220.43;94.33;;;;;;;-1.86;78.61;95334.66;5075248;28;20166;-82
2022/01/17 04:00:47;;;;;;;160.30;69.90;;;;;;;-1.77;78.29;95380.38;5071466;28;21022;-82
2022/01/17 04:03:13;;;;;;;178.23;75.03;;;;;;;-1.87;79.01;95359.66;5060566;28;20189;-82
2022/01/17 04:05:38;;;;;;;186.63;76.57;;;;;;;-2.00;78.26;95330.63;5064836;28;20296;-82
2022/01/17 04:08:06;;;;;;;184.93;81.73;;;;;;;-1.72;77.74;95370.47;5061449;28;20333;-82
2022/01/17 04:10:32;;;;;;;149.53;66.87;;;;;;;-2.11;77.39;95316.00;5057931;28;20268;-82
2022/01/17 04:13:02;;;;;;;160.20;66.70;;;;;;;-2.05;77.58;95332.75;5059410;28;20183;-82
2022/01/17 04:15:28;;;;;;;167.23;65.80;;;;;;;-1.78;77.99;95376.97;5065598;28;20638;-82
2022/01/17 04:17:54;;;;;;;162.30;65.73;;;;;;;-1.79;78.40;95365.00;5061882;28;20163;-82
2022/01/17 04:20:26;;;;;;;143.67;64.03;;;;;;;-1.80;78.40;95365.13;5072768;28;20190;-82
2022/01/17 04:22:54;;;;;;;154.20;64.83;;;;;;;-2.19;77.76;95308.06;5074418;28;20194;-82
2022/01/17 04:25:21;;;;;;;149.33;60.77;;;;;;;-2.20;78.59;95327.06;5074958;28;20633;-82
2022/01/17 04:27:48;;;;;;;148.10;61.37;;;;;;;-2.17;79.07;95328.59;5074635;28;20158;-82
2022/01/17 04:30:14;;;;;;;136.27;58.77;;;;;;;-2.00;79.38;95343.53;5074452;28;20288;-82
2022/01/17 04:32:44;;;;;;;130.27;52.53;;;;;;;-2.05;78.82;95336.13;5073040;28;20607;-82
2022/01/17 04:35:11;;;;;;;121.97;54.13;;;;;;;-1.83;78.48;95365.38;5074427;28;20633;-83
2022/01/17 04:37:37;;;;;;;153.27;63.13;;;;;;;-1.82;78.50;95365.28;5074029;28;20170;-82
2022/01/17 04:40:04;;;;;;;162.43;60.13;;;;;;;-1.89;78.64;95351.19;5074349;28;20166;-83
2022/01/17 04:42:29;;;;;;;126.37;55.07;;;;;;;-2.09;78.41;95318.47;5054114;28;20269;-83
2022/01/17 04:45:07;;;;;;;151.33;61.00;;;;;;;-2.07;78.60;95325.13;5054715;28;20666;-82
2022/01/17 04:47:38;;;;;;;142.97;60.17;;;;;;;-1.82;78.20;95356.72;5058481;28;20174;-83
2022/01/17 04:50:15;;;;;;;119.57;52.50;;;;;;;-2.09;78.00;95315.91;5062159;28;20206;-82
2022/01/17 04:52:42;;;;;;;135.70;59.93;;;;;;;-1.92;78.76;95352.28;5062015;28;20182;-82
2022/01/17 04:55:09;;;;;;;142.13;59.73;;;;;;;-1.95;78.24;95343.97;5073069;28;20174;-82
2022/01/17 04:57:36;;;;;;;133.60;55.13;;;;;;;-2.16;78.24;95312.97;5073696;28;20630;-82
2022/01/17 05:00:05;;;;;;;151.77;59.50;;;;;;;-2.27;78.04;95282.09;5073544;28;20614;-83
2022/01/17 05:02:30;;;;;;;144.13;61.57;;;;;;;-2.20;78.11;95309.00;5073729;28;20171;-83
2022/01/17 05:04:55;;;;;;;146.53;63.63;;;;;;;-2.33;78.01;95275.63;5073844;28;20166;-84
2022/01/17 05:07:21;;;;;;;270.50;116.80;;;;;;;-2.03;78.56;95344.59;5073352;28;20221;-83
2022/01/17 05:09:47;;;;;;;253.30;114.67;;;;;;;-2.16;78.81;95320.69;5062845;28;20179;-84
2022/01/17 05:12:13;;;;;;;277.53;115.10;;;;;;;-1.95;78.38;95347.38;5059949;28;20258;-84
2022/01/17 05:14:44;;;;;;;290.13;123.30;;;;;;;-2.17;79.07;95305.38;5062768;28;20240;-83
2022/01/17 05:17:35;;;;;;;266.73;114.67;;;;;;;-2.12;78.70;95316.13;5059728;28;20615;-82
2022/01/17 05:20:01;;;;;;;215.47;95.03;;;;;;;-2.05;78.73;95325.00;5053723;28;20155;-82
2022/01/17 05:22:32;;;;;;;237.53;101.37;;;;;;;-1.85;79.03;95362.09;5053249;28;20175;-82
2022/01/17 05:25:06;;;;;;;213.83;97.03;;;;;;;-1.84;79.13;95366.31;5051779;28;20167;-81
2022/01/17 05:27:32;;;;;;;227.53;97.43;;;;;;;-2.04;78.72;95335.19;5053117;28;20235;-82
2022/01/17 05:29:58;;;;;;;202.43;84.13;;;;;;;-2.20;78.48;95306.44;5052987;28;20171;-83
2022/01/17 05:32:23;;;;;;;167.07;73.03;;;;;;;-1.81;78.11;95361.72;5053108;28;20186;-83
2022/01/17 05:34:49;;;;;;;171.07;75.70;;;;;;;-2.13;78.45;95302.41;5051775;28;20167;-82
2022/01/17 05:37:14;;;;;;;162.73;73.93;;;;;;;-2.02;78.36;95320.44;5052921;28;20229;-81
2022/01/17 05:39:42;;;;;;;197.07;84.93;;;;;;;-1.95;78.19;95352.53;5052881;28;20164;-82
2022/01/17 05:42:09;;;;;;;223.83;94.03;;;;;;;-2.44;79.15;95313.53;5052413;28;20227;-82
2022/01/17 05:44:35;;;;;;;215.07;86.43;;;;;;;-2.43;79.69;95339.19;5055200;28;20174;-83
2022/01/17 05:47:01;;;;;;;193.67;80.00;;;;;;;-2.48;79.70;95319.84;5059760;28;20186;-83
2022/01/17 05:49:26;;;;;;;203.73;87.07;;;;;;;-2.21;79.34;95358.09;5058842;28;20254;-83
2022/01/17 05:51:52;;;;;;;192.27;80.87;;;;;;;-2.46;79.05;95305.09;5063087;28;20202;-86
2022/01/17 05:54:17;;;;;;;209.43;82.90;;;;;;;-2.48;78.89;95294.09;5060606;28;20189;-82
2022/01/17 05:56:43;;;;;;;199.00;87.43;;;;;;;-2.02;78.39;95372.00;5059329;28;20253;-81
2022/01/17 05:59:09;;;;;;;191.93;80.83;;;;;;;-1.91;78.23;95376.31;5061645;28;20166;-81
2022/01/17 06:01:39;;;;;;;176.03;78.40;;;;;;;-1.88;78.20;95377.81;5058408;28;20159;-84
2022/01/17 06:04:05;;;;;;;176.10;76.03;;;;;;;-2.25;77.82;95321.47;5061678;28;20175;-80
2022/01/17 06:06:30;;;;;;;170.70;74.00;;;;;;;-1.82;78.08;95380.75;5059038;28;20253;-80
2022/01/17 06:08:56;;;;;;;177.67;73.57;;;;;;;-2.07;78.33;95368.97;5059885;28;20192;-80
2022/01/17 06:11:21;;;;;;;183.90;75.77;;;;;;;-2.23;78.96;95355.66;5069221;28;20285;-80
2022/01/17 06:13:47;;;;;;;163.07;67.87;;;;;;;-2.01;79.15;95383.97;5072679;28;20159;-80
2022/01/17 06:16:12;;;;;;;172.07;71.43;;;;;;;-1.89;79.27;95395.06;5072315;28;20174;-80
2022/01/17 06:18:37;;;;;;;166.03;71.03;;;;;;;-2.02;78.79;95343.66;5066666;28;20171;-81
2022/01/17 06:21:03;;;;;;;163.47;71.17;;;;;;;-1.92;78.57;95339.41;5065270;28;20175;-80
2022/01/17 06:23:28;;;;;;;181.03;73.87;;;;;;;-1.66;77.56;95376.00;5063696;28;20173;-80
2022/01/17 06:25:54;;;;;;;178.03;72.13;;;;;;;-1.88;77.73;95328.81;5062264;28;20178;-80
2022/01/17 06:28:19;;;;;;;230.90;94.50;;;;;;;-1.48;77.38;95376.25;5070586;28;20182;-80
2022/01/17 06:30:44;;;;;;;281.73;108.63;;;;;;;-1.56;77.97;95391.56;5072236;28;20186;-80
2022/01/17 06:33:10;;;;;;;256.70;103.70;;;;;;;-1.60;78.32;95366.94;5070884;28;20649;-80
2022/01/17 06:35:35;;;;;;;293.47;118.37;;;;;;;-1.51;77.63;95368.75;5072083;28;20184;-80
2022/01/17 06:38:02;;;;;;;285.37;109.43;;;;;;;-1.58;77.94;95328.91;5067735;28;20672;-82
2022/01/17 06:40:28;;;;;;;250.43;107.67;;;;;;;-1.12;76.99;95325.91;5050742;28;20170;-82
2022/01/17 06:42:54;;;;;;;242.97;109.67;;;;;;;-0.67;74.76;95310.88;5050626;28;20167;-82
2022/01/17 06:45:19;;;;;;;261.20;110.67;;;;;;;0.49;73.14;95388.72;5050729;28;20529;-83
2022/01/17 06:47:45;;;;;;;256.00;110.80;;;;;;;1.10;70.30;95391.78;5051887;28;20706;-82
2022/01/17 06:50:11;;;;;;;271.03;136.90;;;;;;;1.50;67.93;95345.66;5051683;28;20582;-82
2022/01/17 06:52:38;;;;;;;378.43;243.93;;;;;;;2.68;65.61;95399.34;5051851;28;20191;-83
2022/01/17 06:55:07;;;;;;;1999.90;999.90;;;;;;;2.96;62.45;95386.06;5060018;28;20202;-83
2022/01/17 06:57:32;;;;;;;240.37;199.33;;;;;;;3.16;59.81;95404.91;5059254;28;20265;-82
2022/01/17 06:59:58;;;;;;;663.83;593.37;;;;;;;2.96;59.24;95372.25;5059103;28;20254;-82
2022/01/17 07:02:23;;;;;;;1456.20;547.10;;;;;;;3.29;59.11;95388.91;5061105;28;20212;-82
2022/01/17 07:04:49;;;;;;;921.03;737.50;;;;;;;3.30;59.69;95339.31;5072125;28;20163;-82
2022/01/17 07:07:14;;;;;;;146.13;130.27;;;;;;;4.73;56.69;95400.03;5067208;28;20220;-83
2022/01/17 07:09:40;;;;;;;58.03;29.13;;;;;;;5.80;51.54;95368.41;5062724;28;20376;-82
2022/01/17 07:12:06;;;;;;;55.07;25.37;;;;;;;6.82;49.08;95383.94;5058099;28;20693;-83
2022/01/17 07:14:32;;;;;;;31.30;16.23;;;;;;;7.78;46.08;95404.22;5063196;28;20178;-83
2022/01/17 07:16:58;;;;;;;37.10;15.93;;;;;;;8.28;44.75;95405.28;5051693;28;20237;-83
2022/01/17 07:19:24;;;;;;;36.83;16.20;;;;;;;9.00;43.98;95413.97;5051742;28;20167;-83
2022/01/17 07:21:50;;;;;;;28.87;13.03;;;;;;;9.86;41.46;95375.25;5054759;28;20189;-83
2022/01/17 07:24:16;;;;;;;20.07;9.87;;;;;;;11.36;38.41;95378.59;5060108;28;21095;-83
2022/01/17 07:26:42;;;;;;;23.60;11.10;;;;;;;12.20;35.86;95339.13;5057477;28;20808;-83
2022/01/17 07:29:08;;;;;;;69.50;30.87;;;;;;;13.72;35.05;95386.63;5057274;28;20250;-83
2022/01/17 07:31:37;;;;;;;26.30;12.97;;;;;;;15.35;31.58;95408.78;5071514;28;20303;-84
2022/01/17 07:34:04;;;;;;;42.07;14.63;;;;;;;16.31;29.83;95409.50;5072184;28;20170;-84
2022/01/17 07:36:30;;;;;;;25.33;11.20;;;;;;;16.94;28.26;95402.34;5073435;28;20159;-84
2022/01/17 07:38:57;;;;;;;63.47;13.10;;;;;;;17.59;27.11;95401.91;5066095;28;20190;-84
2022/01/17 07:41:24;;;;;;;33.22;12.32;;;;;;;18.59;25.40;95382.41;5066457;28;20193;-85
2022/01/17 07:43:51;;;;;;;99.22;18.40;;;;;;;19.63;24.51;95362.72;5063535;28;20201;-85
2022/01/17 07:46:25;;;;;;;97.25;17.85;;;;;;;20.39;22.80;95283.03;5064877;28;20586;-84
2022/01/17 07:51:27;;;;;;;27.90;11.63;;;;;;;22.49;20.98;95389.88;5055843;28;20187;-83
2022/01/17 07:53:53;;;;;;;48.50;12.35;;;;;;;23.52;19.97;95391.94;5054051;28;20701;-83
2022/01/17 07:56:19;;;;;;;23.35;11.65;;;;;;;24.11;18.80;95393.66;5055735;28;20197;-84
2022/01/17 07:58:44;;;;;;;63.65;15.60;;;;;;;24.41;18.94;95419.50;5055367;28;20226;-82
2022/01/17 08:01:11;;;;;;;47.38;12.63;;;;;;;24.63;18.52;95445.94;5055749;28;20202;-82
2022/01/17 08:03:36;;;;;;;16.67;7.82;;;;;;;25.04;17.83;95457.94;5055763;28;20674;-83
2022/01/17 08:06:02;;;;;;;17.10;9.70;;;;;;;24.94;17.30;95414.94;5055614;28;20190;-82
2022/01/17 08:08:28;;;;;;;41.10;13.52;;;;;;;25.04;17.68;95440.97;5054956;28;20714;-83
2022/01/17 08:10:54;;;;;;;22.80;11.77;;;;;;;24.15;18.56;95413.50;5062517;28;20217;-83
2022/01/17 08:13:19;;;;;;;47.97;11.05;;;;;;;22.99;19.20;95350.56;5074844;28;20166;-83
2022/01/17 08:15:45;;;;;;;106.13;14.00;;;;;;;22.53;20.41;95388.28;5067192;28;20342;-83
2022/01/17 08:18:12;;;;;;;32.28;9.88;;;;;;;21.48;20.79;95386.41;5066834;28;20171;-81
2022/01/17 08:20:37;;;;;;;67.72;11.15;;;;;;;20.17;22.53;95339.28;5062839;28;20179;-81
2022/01/17 08:23:03;;;;;;;34.58;7.70;;;;;;;19.40;23.29;95329.09;5063593;28;20637;-80
2022/01/17 08:25:29;;;;;;;10.65;6.00;;;;;;;18.92;23.78;95365.47;5064868;28;20171;-81
2022/01/17 08:27:54;;;;;;;19.88;7.97;;;;;;;18.50;24.72;95396.41;5058452;28;20274;-83
2022/01/17 08:30:19;;;;;;;16.55;6.38;;;;;;;17.63;24.96;95394.28;5061272;28;20652;-83
2022/01/17 08:32:45;;;;;;;17.52;8.88;;;;;;;17.46;26.06;95468.78;5064955;28;20171;-83
2022/01/17 08:35:11;;;;;;;11.75;6.38;;;;;;;16.48;26.61;95423.69;5058599;28;20175;-83
2022/01/17 08:37:37;;;;;;;38.13;12.13;;;;;;;16.60;27.48;95501.59;5053077;28;20159;-82
2022/01/17 08:40:05;;;;;;;23.70;8.47;;;;;;;16.40;27.04;95472.69;5058114;28;20972;-82
2022/01/17 08:42:33;;;;;;;27.20;9.43;;;;;;;15.70;27.80;95371.72;5052682;28;20171;-82
2022/01/17 08:44:59;;;;;;;47.63;10.30;;;;;;;15.53;28.14;95392.00;5056051;28;20202;-82
2022/01/17 08:47:24;;;;;;;30.83;11.87;;;;;;;15.41;27.45;95412.38;5060151;28;20563;-85
2022/01/17 08:49:53;;;;;;;38.37;12.50;;;;;;;15.13;27.48;95373.22;5059966;28;20209;-84
2022/01/17 08:52:20;;;;;;;22.83;9.33;;;;;;;14.69;27.95;95324.88;5056368;28;20186;-86
2022/01/17 08:54:46;;;;;;;21.53;7.80;;;;;;;14.85;27.78;95349.13;5058016;28;20962;-83
2022/01/17 08:57:12;;;;;;;20.47;8.87;;;;;;;14.44;28.44;95281.81;5053774;28;20183;-83
2022/01/17 08:59:37;;;;;;;18.20;8.57;;;;;;;14.45;28.52;95335.56;5063140;28;20626;-84
2022/01/17 09:02:04;;;;;;;17.17;9.63;;;;;;;13.79;28.96;95363.56;5062590;28;20173;-84
2022/01/17 09:04:29;;;;;;;31.10;9.00;;;;;;;13.27;29.27;95305.81;5061304;28;20642;-84
2022/01/17 09:06:55;;;;;;;21.63;8.37;;;;;;;12.76;29.75;95285.63;5073692;28;20222;-84
2022/01/17 09:09:20;;;;;;;25.50;7.97;;;;;;;12.25;31.99;95288.34;5073877;28;20189;-81
2022/01/17 09:11:46;;;;;;;59.80;10.10;;;;;;;11.96;32.31;95248.28;5073509;28;20244;-82
2022/01/17 09:14:11;;;;;;;26.33;6.40;;;;;;;12.43;32.71;95305.13;5073612;28;20159;-82
2022/01/17 09:16:37;;;;;;;45.17;8.73;;;;;;;11.63;32.81;95256.28;5073450;28;20162;-81
2022/01/17 09:19:05;;;;;;;17.80;7.23;;;;;;;12.04;32.83;95306.09;5073345;28;20257;-83
2022/01/17 09:21:31;;;;;;;36.87;10.50;;;;;;;11.99;33.32;95305.09;5073326;28;20189;-82
2022/01/17 09:23:58;;;;;;;10.10;5.37;;;;;;;11.56;32.63;95226.50;5073600;28;20166;-82
2022/01/17 09:26:27;;;;;;;9.97;4.80;;;;;;;11.76;32.82;95262.56;5072001;28;20202;-82
2022/01/17 09:28:54;;;;;;;14.73;6.47;;;;;;;11.80;33.23;95284.88;5073310;28;20245;-81
2022/01/17 09:31:20;;;;;;;8.20;4.93;;;;;;;11.55;33.60;95277.59;5073163;28;20194;-82
2022/01/17 09:33:46;;;;;;;10.77;5.17;;;;;;;11.48;34.46;95318.19;5073075;28;20167;-82
2022/01/17 09:36:12;;;;;;;19.23;7.50;;;;;;;10.96;36.20;95230.25;5073582;28;20163;-81
2022/01/17 09:38:37;;;;;;;16.17;7.87;;;;;;;10.58;37.04;95278.22;5071800;28;20178;-81
2022/01/17 09:41:04;;;;;;;21.43;7.57;;;;;;;9.96;38.76;95254.75;5073050;28;20166;-81
2022/01/17 09:43:29;;;;;;;14.43;7.43;;;;;;;9.76;39.60;95288.84;5073343;28;20232;-86
2022/01/17 09:45:56;;;;;;;19.87;7.80;;;;;;;9.66;40.25;95277.06;5073498;28;20193;-84
2022/01/17 09:48:33;;;;;;;13.83;6.83;;;;;;;9.17;40.87;95277.19;5072911;28;20224;-82
2022/01/17 09:51:04;;;;;;;21.20;8.67;;;;;;;9.48;42.04;95331.94;5062119;28;20283;-83
2022/01/17 09:53:38;;;;;;;16.40;7.43;;;;;;;9.03;42.33;95302.50;5067619;28;20178;-83
2022/01/17 09:56:07;;;;;;;23.07;8.17;;;;;;;8.81;42.93;95291.25;5068363;28;20170;-84
2022/01/17 09:58:36;;;;;;;20.73;7.73;;;;;;;8.95;43.72;95347.28;5064443;28;20186;-84
2022/01/17 10:01:04;;;;;;;24.87;10.00;;;;;;;8.59;44.20;95297.47;5069921;28;20206;-83
2022/01/17 10:03:30;;;;;;;23.57;8.50;;;;;;;8.68;45.70;95335.72;5066461;28;20643;-85
2022/01/17 10:05:57;;;;;;;24.70;6.40;;;;;;;8.56;46.18;95345.88;5070929;28;20183;-84
2022/01/17 10:08:23;;;;;;;18.77;5.47;;;;;;;8.36;47.47;95355.38;5061648;28;20780;-85
2022/01/17 10:10:57;;;;;;;8.07;5.23;;;;;;;7.89;48.03;95321.69;5062414;28;20206;-84
2022/01/17 10:13:45;;;;;;;10.90;5.30;;;;;;;8.05;48.59;95354.75;5051287;28;20220;-84
2022/01/17 10:16:19;;;;;;;10.83;5.27;;;;;;;7.89;49.05;95369.69;5051136;28;20635;-85
2022/01/17 10:19:01;;;;;;;16.47;5.80;;;;;;;7.43;49.41;95319.28;5051093;28;20167;-84
2022/01/17 10:21:29;;;;;;;13.77;6.00;;;;;;;7.44;50.11;95360.16;5052320;28;20623;-84
2022/01/17 10:29:55;;;;;;;10.87;4.97;;;;;;;6.78;51.80;95329.50;5052200;28;20178;-84
2022/01/17 10:35:24;;;;;;;15.03;8.30;;;;;;;6.89;52.71;95336.94;5062662;28;20174;-85
2022/01/17 10:38:16;;;;;;;10.20;6.10;;;;;;;7.00;51.80;95341.78;5060859;28;20177;-85
2022/01/17 10:40:57;;;;;;;12.00;6.70;;;;;;;6.93;51.44;95330.38;5054377;28;20229;-84
2022/01/17 10:43:27;;;;;;;17.30;7.13;;;;;;;6.92;52.40;95333.19;5052206;28;20163;-86
2022/01/17 10:45:55;;;;;;;10.57;6.17;;;;;;;6.77;52.13;95335.72;5051789;28;20155;-85
2022/01/17 10:48:27;;;;;;;10.73;5.83;;;;;;;6.70;52.50;95343.47;5054912;28;20295;-86
2022/01/17 10:50:53;;;;;;;18.27;7.03;;;;;;;6.14;52.65;95242.69;5060376;28;20190;-85
2022/01/17 10:53:19;;;;;;;10.77;6.03;;;;;;;6.35;52.85;95273.44;5067077;28;20185;-86
2022/01/17 10:55:50;;;;;;;15.07;6.00;;;;;;;6.14;52.59;95245.31;5059000;28;20210;-86
2022/01/17 10:58:23;;;;;;;10.13;5.30;;;;;;;6.12;52.62;95273.44;5060109;28;20249;-85
2022/01/17 11:00:54;;;;;;;51.40;9.90;;;;;;;6.39;53.45;95324.41;5059669;28;20189;-85
2022/01/17 11:03:25;;;;;;;55.10;10.77;;;;;;;6.15;53.82;95286.16;5056756;28;20725;-86
2022/01/17 11:05:53;;;;;;;13.40;6.27;;;;;;;5.66;53.63;95215.06;5057377;28;20312;-86
2022/01/17 11:08:23;;;;;;;10.90;7.00;;;;;;;5.92;54.56;95314.03;5055507;28;20673;-86
2022/01/17 11:10:53;;;;;;;68.10;10.87;;;;;;;5.96;54.97;95310.13;5058117;28;20198;-87
2022/01/17 11:13:20;;;;;;;11.07;6.30;;;;;;;5.61;54.79;95246.09;5066990;28;20601;-86
2022/01/17 11:15:52;;;;;;;12.60;6.70;;;;;;;6.19;55.02;95310.97;5061227;28;20260;-85
2022/01/17 11:18:25;;;;;;;23.57;7.10;;;;;;;6.40;54.05;95303.28;5060056;28;20189;-85
2022/01/17 11:20:54;;;;;;;18.80;8.03;;;;;;;6.64;53.29;95294.47;5061802;28;20594;-86
2022/01/17 11:23:22;;;;;;;104.20;10.07;;;;;;;6.45;53.14;95229.56;5058214;28;20594;-86
2022/01/17 11:25:53;;;;;;;16.07;9.13;;;;;;;6.64;51.98;95225.66;5065576;28;20175;-86
2022/01/17 11:28:22;;;;;;;36.20;8.57;;;;;;;6.92;51.48;95236.34;5065724;28;20178;-86
2022/01/17 11:30:49;;;;;;;119.00;14.27;;;;;;;7.29;50.04;95257.22;5061211;28;20190;-84
2022/01/17 11:33:14;;;;;;;50.53;8.33;;;;;;;7.32;49.94;95238.53;5066787;28;20688;-85
2022/01/17 11:35:42;;;;;;;53.17;8.17;;;;;;;7.14;49.52;95181.31;5065990;28;20175;-85
2022/01/17 11:38:13;;;;;;;26.80;7.17;;;;;;;7.71;48.73;95282.75;5057976;28;20183;-85
2022/01/17 11:40:40;;;;;;;11.23;5.80;;;;;;;7.46;48.47;95239.50;5061901;28;20182;-85
2022/01/17 11:43:33;;;;;;;30.27;5.90;;;;;;;7.65;48.63;95283.50;5058834;28;20863;-85